createdAt,value
2023-05-09T00:01:14.332Z,13.08
2023-05-09T00:03:45.066Z,13.14
2023-05-09T00:06:15.712Z,13.11
2023-05-09T00:08:46.206Z,13.12
2023-05-09T00:11:16.720Z,13.12
2023-05-09T00:13:49.412Z,13.14
2023-05-09T00:16:24.449Z,13.15
2023-05-09T00:18:54.760Z,13.04
2023-05-09T00:21:25.119Z,13.03
2023-05-09T00:23:55.322Z,13.06
2023-05-09T00:26:26.586Z,12.89
2023-05-09T00:28:59.411Z,12.98
2023-05-09T00:31:29.663Z,13.03
2023-05-09T00:33:59.979Z,13.01
2023-05-09T00:36:30.224Z,12.98
2023-05-09T00:39:02.820Z,12.96
2023-05-09T00:41:33.018Z,12.92
2023-05-09T00:44:06.203Z,12.86
2023-05-09T00:46:36.907Z,12.87
2023-05-09T00:49:08.409Z,12.79
2023-05-09T00:51:42.449Z,12.76
2023-05-09T00:54:13.119Z,12.55
2023-05-09T00:56:43.366Z,12.68
2023-05-09T00:59:17.536Z,12.61
2023-05-09T01:01:47.948Z,12.61
2023-05-09T01:04:18.658Z,12.61
2023-05-09T01:06:57.645Z,12.60
2023-05-09T01:09:37.337Z,12.58
2023-05-09T01:12:17.177Z,12.60
2023-05-09T01:14:58.619Z,12.58
2023-05-09T01:17:38.237Z,12.54
2023-05-09T01:20:17.916Z,12.55
2023-05-09T01:22:52.866Z,12.49
2023-05-09T01:25:53.516Z,12.42
2023-05-09T01:28:38.958Z,12.51
2023-05-09T01:31:12.936Z,12.47
2023-05-09T01:33:48.980Z,12.48
2023-05-09T01:36:22.654Z,12.43
2023-05-09T01:38:55.008Z,12.37
2023-05-09T01:41:27.720Z,12.38
2023-05-09T01:43:59.885Z,12.32
2023-05-09T01:46:33.453Z,12.27
2023-05-09T01:49:05.740Z,12.20
2023-05-09T01:51:37.998Z,12.24
2023-05-09T01:54:09.937Z,12.22
2023-05-09T01:56:41.311Z,12.16
2023-05-09T01:59:16.828Z,12.16
2023-05-09T02:01:51.149Z,12.12
2023-05-09T02:04:22.224Z,12.10
2023-05-09T02:06:53.529Z,12.07
2023-05-09T02:09:23.429Z,12.01
2023-05-09T02:11:53.825Z,11.91
2023-05-09T02:14:27.200Z,11.88
2023-05-09T02:17:00.336Z,11.86
2023-05-09T02:19:30.561Z,11.81
2023-05-09T02:22:00.849Z,11.77
2023-05-09T02:24:31.121Z,11.74
2023-05-09T02:27:04.213Z,11.67
2023-05-09T02:29:40.834Z,11.63
2023-05-09T02:32:20.508Z,11.59
2023-05-09T02:34:54.032Z,11.37
2023-05-09T02:37:24.953Z,11.49
2023-05-09T02:39:55.250Z,11.49
2023-05-09T02:42:33.064Z,11.40
2023-05-09T02:45:03.980Z,11.44
2023-05-09T02:47:36.814Z,11.44
2023-05-09T02:50:07.848Z,11.44
2023-05-09T02:52:39.762Z,11.44
2023-05-09T02:55:14.420Z,11.39
2023-05-09T02:57:46.093Z,11.40
2023-05-09T03:00:18.590Z,11.43
2023-05-09T03:02:52.288Z,11.42
2023-05-09T03:05:23.312Z,11.31
2023-05-09T03:07:55.955Z,11.34
2023-05-09T03:10:26.207Z,11.41
2023-05-09T03:12:56.426Z,11.23
2023-05-09T03:15:26.654Z,11.34
2023-05-09T03:18:00.237Z,11.32
2023-05-09T03:20:32.785Z,11.17
2023-05-09T03:23:02.945Z,11.07
2023-05-09T03:25:33.183Z,11.05
2023-05-09T03:28:03.412Z,10.97
2023-05-09T03:30:33.734Z,10.95
2023-05-09T03:33:09.014Z,10.97
2023-05-09T03:35:39.342Z,10.92
2023-05-09T03:38:10.216Z,10.77
2023-05-09T03:40:41.384Z,10.86
2023-05-09T03:43:13.587Z,10.82
2023-05-09T03:45:44.327Z,10.87
2023-05-09T03:48:18.443Z,10.90
2023-05-09T03:50:53.428Z,10.91
2023-05-09T03:53:24.632Z,10.88
2023-05-09T03:55:56.383Z,10.87
2023-05-09T03:58:29.942Z,10.91
2023-05-09T04:01:01.489Z,10.85
2023-05-09T04:03:34.868Z,10.76
2023-05-09T04:06:05.850Z,10.82
2023-05-09T04:08:43.055Z,10.85
2023-05-09T04:11:13.436Z,10.83
2023-05-09T04:13:46.998Z,10.76
2023-05-09T04:16:33.383Z,10.83
2023-05-09T04:19:07.471Z,10.77
2023-05-09T04:21:38.919Z,10.70
2023-05-09T04:24:16.088Z,10.75
2023-05-09T04:26:48.920Z,10.70
2023-05-09T04:29:26.913Z,10.69
2023-05-09T04:31:59.568Z,10.50
2023-05-09T04:34:33.677Z,10.58
2023-05-09T04:37:11.364Z,10.82
2023-05-09T04:39:41.739Z,10.81
2023-05-09T04:42:21.310Z,10.75
2023-05-09T04:44:54.456Z,10.88
2023-05-09T04:47:26.636Z,10.91
2023-05-09T04:49:59.194Z,10.96
2023-05-09T04:52:29.965Z,10.91
2023-05-09T04:55:00.146Z,10.75
2023-05-09T04:57:37.059Z,10.88
2023-05-09T05:00:11.650Z,10.92
2023-05-09T05:02:42.634Z,10.98
2023-05-09T05:05:17.994Z,10.99
2023-05-09T05:07:54.691Z,11.02
2023-05-09T05:10:28.807Z,10.88
2023-05-09T05:13:06.809Z,10.99
2023-05-09T05:15:38.850Z,10.96
2023-05-09T05:18:10.371Z,11.00
2023-05-09T05:20:45.113Z,11.05
2023-05-09T05:23:15.454Z,11.22
2023-05-09T05:25:45.843Z,11.29
2023-05-09T05:28:17.221Z,11.26
2023-05-09T05:30:47.778Z,11.22
2023-05-09T05:33:17.966Z,11.20
2023-05-09T05:35:51.672Z,11.19
2023-05-09T05:38:21.855Z,11.27
2023-05-09T05:40:55.597Z,11.12
2023-05-09T05:43:27.285Z,11.36
2023-05-09T05:45:58.267Z,11.47
2023-05-09T05:48:29.780Z,11.46
2023-05-09T05:51:04.413Z,11.46
2023-05-09T05:53:35.691Z,11.32
2023-05-09T05:56:06.095Z,11.20
2023-05-09T05:58:36.936Z,11.43
2023-05-09T06:01:09.814Z,11.52
2023-05-09T06:03:41.316Z,11.62
2023-05-09T06:06:15.182Z,11.70
2023-05-09T06:08:46.399Z,11.82
2023-05-09T06:11:17.662Z,11.89
2023-05-09T06:13:48.166Z,11.84
2023-05-09T06:16:20.134Z,12.24
2023-05-09T06:18:56.013Z,13.04
2023-05-09T06:21:29.410Z,13.60
2023-05-09T06:24:09.832Z,13.68
2023-05-09T06:26:44.685Z,14.03
2023-05-09T06:29:15.832Z,14.16
2023-05-09T06:31:48.452Z,14.44
2023-05-09T06:34:19.901Z,14.55
2023-05-09T06:36:53.822Z,14.41
2023-05-09T06:39:24.056Z,14.52
2023-05-09T06:41:54.280Z,14.41
2023-05-09T06:44:34.144Z,14.24
2023-05-09T06:47:04.770Z,14.18
2023-05-09T06:49:34.889Z,14.19
2023-05-09T06:52:08.030Z,14.00
2023-05-09T06:54:39.305Z,13.98
2023-05-09T06:57:09.503Z,13.93
2023-05-09T06:59:39.717Z,13.65
2023-05-09T07:02:10.307Z,13.94
2023-05-09T07:04:40.733Z,13.93
2023-05-09T07:07:13.611Z,13.97
2023-05-09T07:09:45.132Z,14.06
2023-05-09T07:12:15.349Z,14.19
2023-05-09T07:14:45.652Z,14.34
2023-05-09T07:17:23.649Z,14.49
2023-05-09T07:19:54.366Z,14.57
2023-05-09T07:22:28.240Z,14.69
2023-05-09T07:25:01.145Z,14.73
2023-05-09T07:27:31.413Z,14.72
2023-05-09T07:30:01.614Z,14.89
2023-05-09T07:32:31.852Z,14.91
2023-05-09T07:35:02.181Z,14.84
2023-05-09T07:37:35.487Z,15.02
2023-05-09T07:40:06.499Z,15.17
2023-05-09T07:42:37.346Z,15.08
2023-05-09T07:45:08.959Z,15.23
2023-05-09T07:47:39.434Z,15.25
2023-05-09T07:50:13.249Z,15.34
2023-05-09T07:52:47.532Z,15.35
2023-05-09T07:55:18.018Z,15.54
2023-05-09T07:57:48.466Z,15.66
2023-05-09T08:00:24.315Z,15.80
2023-05-09T08:02:56.889Z,15.90
2023-05-09T08:05:27.332Z,15.94
2023-05-09T08:08:00.181Z,15.95
2023-05-09T08:10:30.916Z,15.82
2023-05-09T08:13:01.249Z,15.99
2023-05-09T08:15:33.724Z,15.97
2023-05-09T08:18:03.909Z,16.11
2023-05-09T08:20:34.881Z,16.17
2023-05-09T08:23:07.469Z,16.23
2023-05-09T08:25:37.750Z,16.29
2023-05-09T08:28:08.201Z,16.29
2023-05-09T08:30:41.229Z,16.38
2023-05-09T08:33:11.542Z,16.54
2023-05-09T08:35:41.841Z,16.68
2023-05-09T08:38:14.697Z,16.85
2023-05-09T08:40:44.966Z,16.77
2023-05-09T08:43:18.840Z,16.93
2023-05-09T08:45:50.767Z,16.86
2023-05-09T08:48:22.580Z,17.11
2023-05-09T08:50:53.730Z,17.19
2023-05-09T08:53:27.433Z,17.34
2023-05-09T08:55:57.870Z,17.39
2023-05-09T08:58:29.506Z,17.27
2023-05-09T09:01:00.011Z,17.37
2023-05-09T09:03:30.668Z,17.34
2023-05-09T09:06:01.859Z,17.41
2023-05-09T09:08:34.841Z,17.48
2023-05-09T09:11:08.457Z,17.60
2023-05-09T09:13:43.941Z,17.80
2023-05-09T09:16:23.372Z,17.84
2023-05-09T09:18:58.502Z,17.88
2023-05-09T09:21:29.093Z,17.88
2023-05-09T09:24:02.215Z,18.13
2023-05-09T09:26:32.680Z,18.18
2023-05-09T09:29:05.534Z,18.19
2023-05-09T09:31:36.610Z,18.31
2023-05-09T09:34:06.978Z,18.32
2023-05-09T09:36:37.274Z,18.25
2023-05-09T09:39:10.095Z,18.24
2023-05-09T09:41:45.060Z,18.18
2023-05-09T09:44:17.069Z,18.25
2023-05-09T09:46:48.624Z,18.33
2023-05-09T09:49:22.028Z,18.35
2023-05-09T09:51:57.625Z,18.47
2023-05-09T09:54:32.300Z,18.54
2023-05-09T09:57:02.973Z,18.65
2023-05-09T09:59:33.184Z,18.70
2023-05-09T10:02:07.998Z,18.89
2023-05-09T10:04:41.792Z,19.02
2023-05-09T10:07:15.054Z,19.16
2023-05-09T10:09:50.165Z,19.39
2023-05-09T10:12:23.067Z,19.47
2023-05-09T10:14:53.573Z,19.53
2023-05-09T10:17:27.733Z,19.41
2023-05-09T10:19:58.799Z,19.52
2023-05-09T10:22:31.457Z,19.53
2023-05-09T10:25:07.206Z,19.67
2023-05-09T10:27:39.295Z,19.80
2023-05-09T10:30:13.033Z,19.83
2023-05-09T10:32:51.158Z,19.97
2023-05-09T10:35:23.202Z,20.08
2023-05-09T10:37:55.549Z,20.10
2023-05-09T10:40:29.025Z,20.16
2023-05-09T10:42:59.147Z,20.27
2023-05-09T10:45:30.100Z,20.26
2023-05-09T10:48:01.927Z,20.36
2023-05-09T10:50:37.850Z,20.55
2023-05-09T10:53:15.230Z,20.72
2023-05-09T10:55:55.877Z,20.65
2023-05-09T10:58:29.377Z,20.52
2023-05-09T11:01:01.437Z,20.50
2023-05-09T11:03:52.430Z,20.42
2023-05-09T11:06:37.055Z,20.27
2023-05-09T11:09:36.175Z,20.31
2023-05-09T11:12:16.161Z,20.24
2023-05-09T11:14:47.767Z,20.15
2023-05-09T11:17:30.808Z,20.18
2023-05-09T11:20:07.366Z,20.16
2023-05-09T11:22:43.237Z,20.09
2023-05-09T11:25:17.252Z,20.10
2023-05-09T11:27:52.405Z,20.37
2023-05-09T11:30:23.778Z,20.51
2023-05-09T11:32:59.161Z,20.47
2023-05-09T11:35:30.637Z,20.53
2023-05-09T11:38:04.530Z,20.54
2023-05-09T11:40:35.887Z,20.49
2023-05-09T11:43:11.335Z,20.37
2023-05-09T11:45:43.740Z,20.14
2023-05-09T11:48:14.054Z,20.26
2023-05-09T11:50:44.317Z,20.27
2023-05-09T11:53:15.193Z,20.26
2023-05-09T11:55:45.074Z,20.28
2023-05-09T11:58:18.520Z,20.26
2023-05-09T12:00:49.267Z,20.20
2023-05-09T12:03:19.659Z,20.14
2023-05-09T12:05:51.550Z,20.09
2023-05-09T12:08:21.982Z,20.23
2023-05-09T12:10:52.428Z,20.20
2023-05-09T12:13:25.242Z,20.23
2023-05-09T12:16:03.186Z,20.23
2023-05-09T12:18:33.823Z,20.39
2023-05-09T12:21:04.574Z,20.50
2023-05-09T12:23:38.001Z,20.46
2023-05-09T12:26:08.930Z,20.53
2023-05-09T12:28:44.323Z,20.64
2023-05-09T12:31:16.193Z,20.78
2023-05-09T12:33:46.461Z,20.88
2023-05-09T12:36:17.030Z,21.12
2023-05-09T12:38:56.546Z,20.98
2023-05-09T12:41:36.986Z,21.26
2023-05-09T12:44:21.968Z,21.25
2023-05-09T12:47:02.991Z,21.15
2023-05-09T12:49:33.915Z,21.01
2023-05-09T12:52:05.062Z,20.88
2023-05-09T12:54:36.130Z,20.93
2023-05-09T12:57:06.663Z,21.09
2023-05-09T12:59:41.321Z,21.32
2023-05-09T13:02:11.534Z,21.58
2023-05-09T13:04:41.835Z,21.87
2023-05-09T13:07:13.337Z,22.11
2023-05-09T13:09:58.502Z,22.33
2023-05-09T13:12:28.888Z,22.47
2023-05-09T13:15:01.921Z,22.54
2023-05-09T13:17:34.532Z,22.49
2023-05-09T13:20:06.896Z,22.48
2023-05-09T13:22:37.461Z,22.53
2023-05-09T13:25:08.838Z,22.70
2023-05-09T13:27:41.620Z,22.75
2023-05-09T13:30:18.566Z,22.76
2023-05-09T13:32:49.855Z,22.70
2023-05-09T13:35:20.586Z,22.54
2023-05-09T13:37:51.205Z,22.58
2023-05-09T13:40:21.625Z,22.51
2023-05-09T13:42:54.909Z,22.35
2023-05-09T13:45:27.721Z,22.25
2023-05-09T13:47:58.120Z,22.15
2023-05-09T13:50:28.680Z,22.12
2023-05-09T13:52:59.347Z,21.99
2023-05-09T13:55:33.530Z,21.87
2023-05-09T13:58:03.659Z,21.73
2023-05-09T14:00:36.968Z,21.67
2023-05-09T14:03:09.646Z,21.69
2023-05-09T14:05:40.041Z,21.70
2023-05-09T14:08:18.763Z,21.66
2023-05-09T14:10:49.106Z,21.70
2023-05-09T14:13:19.516Z,21.55
2023-05-09T14:15:52.423Z,21.44
2023-05-09T14:18:25.018Z,21.38
2023-05-09T14:20:55.182Z,21.39
2023-05-09T14:23:25.380Z,21.39
2023-05-09T14:25:55.585Z,21.41
2023-05-09T14:28:26.189Z,21.35
2023-05-09T14:30:59.014Z,21.12
2023-05-09T14:33:29.546Z,20.88
2023-05-09T14:36:01.485Z,20.89
2023-05-09T14:38:33.555Z,20.83
2023-05-09T14:41:03.838Z,20.92
2023-05-09T14:43:34.015Z,20.84
2023-05-09T14:46:06.928Z,20.77
2023-05-09T14:48:37.333Z,20.70
2023-05-09T14:51:07.863Z,20.63
2023-05-09T14:53:41.987Z,20.59
2023-05-09T14:56:13.501Z,20.53
2023-05-09T14:58:43.846Z,20.20
2023-05-09T15:01:19.226Z,20.34
2023-05-09T15:03:50.907Z,20.20
2023-05-09T15:06:21.146Z,20.12
2023-05-09T15:08:51.284Z,20.04
2023-05-09T15:11:22.524Z,19.84
2023-05-09T15:13:58.599Z,19.78
2023-05-09T15:16:31.780Z,19.64
2023-05-09T15:19:03.851Z,19.52
2023-05-09T15:21:35.959Z,19.45
2023-05-09T15:24:10.159Z,19.37
2023-05-09T15:26:40.879Z,19.30
2023-05-09T15:29:11.236Z,19.15
2023-05-09T15:31:44.122Z,19.02
2023-05-09T15:34:15.862Z,18.93
2023-05-09T15:36:46.253Z,18.74
2023-05-09T15:39:16.728Z,18.64
2023-05-09T15:41:47.902Z,18.53
2023-05-09T15:44:18.151Z,18.51
2023-05-09T15:46:50.939Z,18.44
2023-05-09T15:49:21.728Z,18.36
2023-05-09T15:51:51.911Z,18.27
2023-05-09T15:54:23.581Z,18.19
2023-05-09T15:56:54.320Z,18.13
2023-05-09T15:59:24.601Z,18.01
2023-05-09T16:01:57.563Z,18.09
2023-05-09T16:04:27.852Z,18.34
2023-05-09T16:06:58.554Z,18.48
2023-05-09T16:09:28.720Z,18.68
2023-05-09T16:12:01.087Z,18.80
2023-05-09T16:14:31.567Z,18.73
2023-05-09T16:17:04.843Z,18.72
2023-05-09T16:19:38.496Z,18.75
2023-05-09T16:22:11.051Z,18.81
2023-05-09T16:24:44.318Z,18.74
2023-05-09T16:27:14.965Z,18.68
2023-05-09T16:29:45.511Z,18.57
2023-05-09T16:32:18.364Z,18.37
2023-05-09T16:34:51.604Z,18.19
2023-05-09T16:37:21.925Z,18.04
2023-05-09T16:39:52.282Z,17.86
2023-05-09T16:42:22.492Z,17.71
2023-05-09T16:44:53.024Z,17.58
2023-05-09T16:47:26.010Z,17.47
2023-05-09T16:49:58.102Z,17.47
2023-05-09T16:52:30.824Z,17.39
2023-05-09T16:55:01.355Z,17.33
2023-05-09T16:57:34.497Z,17.23
2023-05-09T17:00:04.639Z,17.17
2023-05-09T17:02:37.597Z,17.11
2023-05-09T17:05:08.636Z,17.05
2023-05-09T17:07:39.004Z,16.83
2023-05-09T17:10:10.449Z,16.95
2023-05-09T17:12:41.140Z,17.01
2023-05-09T17:15:16.253Z,17.07
2023-05-09T17:17:49.963Z,17.24
2023-05-09T17:20:20.201Z,17.34
2023-05-09T17:22:50.436Z,17.35
2023-05-09T17:25:23.630Z,17.36
2023-05-09T17:27:56.471Z,17.24
2023-05-09T17:30:28.215Z,16.92
2023-05-09T17:33:01.016Z,16.86
2023-05-09T17:35:31.293Z,16.72
2023-05-09T17:38:01.524Z,16.59
2023-05-09T17:40:31.938Z,16.36
2023-05-09T17:43:04.456Z,16.34
2023-05-09T17:45:34.684Z,16.18
2023-05-09T17:48:07.575Z,16.06
2023-05-09T17:50:37.827Z,15.89
2023-05-09T17:53:09.018Z,15.85
2023-05-09T17:55:39.286Z,15.65
2023-05-09T17:58:12.192Z,15.61
2023-05-09T18:00:42.317Z,15.59
2023-05-09T18:03:15.276Z,15.52
2023-05-09T18:05:45.632Z,15.47
2023-05-09T18:08:16.087Z,15.26
2023-05-09T18:10:46.486Z,15.34
2023-05-09T18:13:19.339Z,15.19
2023-05-09T18:15:49.505Z,15.22
2023-05-09T18:18:22.639Z,15.12
2023-05-09T18:20:53.027Z,15.04
2023-05-09T18:23:25.226Z,15.02
2023-05-09T18:25:56.771Z,14.95
2023-05-09T18:28:29.118Z,14.87
2023-05-09T18:31:01.541Z,14.87
2023-05-09T18:33:36.965Z,14.84
2023-05-09T18:36:11.513Z,14.81
2023-05-09T18:38:41.970Z,14.83
2023-05-09T18:41:14.059Z,14.78
2023-05-09T18:43:48.386Z,14.74
2023-05-09T18:46:22.045Z,14.69
2023-05-09T18:48:55.375Z,14.73
2023-05-09T18:51:25.898Z,14.66
2023-05-09T18:53:56.998Z,14.60
2023-05-09T18:56:27.189Z,14.56
2023-05-09T18:58:57.566Z,14.50
2023-05-09T19:01:30.613Z,14.56
2023-05-09T19:04:04.798Z,14.49
2023-05-09T19:06:35.124Z,14.52
2023-05-09T19:09:05.890Z,14.55
2023-05-09T19:11:36.258Z,14.55
2023-05-09T19:14:09.045Z,14.53
2023-05-09T19:16:39.322Z,14.57
2023-05-09T19:19:12.185Z,14.27
2023-05-09T19:21:42.509Z,14.58
2023-05-09T19:24:12.962Z,14.56
2023-05-09T19:26:43.216Z,14.51
2023-05-09T19:29:13.483Z,14.38
2023-05-09T19:31:43.851Z,14.39
2023-05-09T19:34:16.812Z,14.35
2023-05-09T19:36:47.137Z,14.25
2023-05-09T19:39:17.389Z,14.26
2023-05-09T19:41:48.241Z,14.26
2023-05-09T19:44:18.332Z,14.18
2023-05-09T19:46:51.123Z,14.14
2023-05-09T19:49:24.028Z,14.17
2023-05-09T19:51:54.642Z,14.19
2023-05-09T19:54:28.731Z,14.17
2023-05-09T19:57:01.267Z,13.95
2023-05-09T19:59:32.692Z,13.99
2023-05-09T20:02:03.029Z,13.88
2023-05-09T20:04:39.086Z,13.97
2023-05-09T20:07:09.524Z,13.95
2023-05-09T20:09:40.039Z,13.94
2023-05-09T20:12:14.734Z,13.91
2023-05-09T20:14:45.226Z,13.82
2023-05-09T20:17:15.498Z,13.83
2023-05-09T20:19:48.291Z,13.82
2023-05-09T20:22:20.758Z,13.82
2023-05-09T20:24:51.377Z,13.71
2023-05-09T20:27:22.247Z,13.70
2023-05-09T20:29:52.582Z,13.69
2023-05-09T20:32:22.719Z,13.59
2023-05-09T20:34:55.400Z,13.58
2023-05-09T20:37:27.852Z,13.54
2023-05-09T20:39:58.375Z,13.48
2023-05-09T20:42:28.693Z,13.44
2023-05-09T20:44:58.806Z,13.40
2023-05-09T20:47:29.354Z,13.40
2023-05-09T20:50:02.096Z,13.46
2023-05-09T20:52:34.564Z,13.44
2023-05-09T20:55:05.612Z,13.39
2023-05-09T20:57:35.492Z,13.40
2023-05-09T21:00:07.792Z,13.40
2023-05-09T21:02:38.068Z,13.40
2023-05-09T21:05:11.472Z,13.34
2023-05-09T21:07:43.916Z,13.35
2023-05-09T21:10:14.198Z,13.35
2023-05-09T21:12:44.594Z,13.37
2023-05-09T21:15:14.957Z,13.29
2023-05-09T21:17:45.081Z,13.37
2023-05-09T21:20:18.418Z,13.30
2023-05-09T21:22:48.636Z,13.39
2023-05-09T21:25:19.391Z,13.37
2023-05-09T21:27:49.470Z,13.36
2023-05-09T21:30:19.972Z,13.30
2023-05-09T21:32:50.083Z,13.26
2023-05-09T21:35:23.132Z,13.27
2023-05-09T21:37:53.394Z,13.25
2023-05-09T21:40:23.458Z,13.23
2023-05-09T21:42:53.528Z,13.14
2023-05-09T21:45:23.570Z,13.08
2023-05-09T21:47:53.765Z,13.19
2023-05-09T21:50:26.811Z,13.18
2023-05-09T21:52:57.660Z,13.21
2023-05-09T21:55:27.970Z,13.17
2023-05-09T21:58:00.072Z,13.18
2023-05-09T22:00:30.258Z,13.20
2023-05-09T22:03:01.307Z,13.23
2023-05-09T22:05:35.372Z,13.16
2023-05-09T22:08:05.563Z,13.09
2023-05-09T22:10:37.901Z,13.11
2023-05-09T22:13:08.186Z,13.08
2023-05-09T22:15:38.363Z,13.00
2023-05-09T22:18:08.970Z,13.05
2023-05-09T22:20:41.990Z,12.98
2023-05-09T22:23:12.030Z,12.99
2023-05-09T22:25:42.068Z,12.98
2023-05-09T22:28:14.122Z,12.97
2023-05-09T22:30:45.039Z,12.96
2023-05-09T22:33:15.223Z,12.86
2023-05-09T22:35:48.888Z,12.91
2023-05-09T22:38:19.009Z,12.90
2023-05-09T22:40:49.176Z,12.95
2023-05-09T22:43:21.715Z,12.95
2023-05-09T22:45:52.997Z,12.93
2023-05-09T22:48:23.743Z,12.90
2023-05-09T22:50:56.909Z,12.96
2023-05-09T22:53:28.425Z,12.93
2023-05-09T22:55:59.637Z,12.95
2023-05-09T22:58:32.093Z,12.90
2023-05-09T23:01:02.309Z,12.85
2023-05-09T23:03:32.491Z,12.77
2023-05-09T23:06:05.335Z,12.81
2023-05-09T23:08:36.307Z,12.73
2023-05-09T23:11:09.361Z,12.73
2023-05-09T23:13:39.614Z,12.78
2023-05-09T23:16:10.545Z,12.73
2023-05-09T23:18:41.019Z,12.73
2023-05-09T23:21:13.734Z,12.66
2023-05-09T23:23:43.858Z,12.65
2023-05-09T23:26:16.101Z,12.66
2023-05-09T23:28:46.323Z,12.68
2023-05-09T23:31:16.655Z,12.71
2023-05-09T23:33:46.952Z,12.73
2023-05-09T23:36:19.792Z,12.68
2023-05-09T23:38:50.036Z,12.67
2023-05-09T23:41:20.220Z,12.64
2023-05-09T23:43:50.420Z,12.62
2023-05-09T23:46:20.644Z,12.54
2023-05-09T23:48:50.819Z,12.50
2023-05-09T23:51:23.602Z,12.54
2023-05-09T23:53:53.753Z,12.55
2023-05-09T23:56:25.481Z,12.50
2023-05-09T23:58:58.259Z,12.46
